createdAt,value
2023-08-12T00:02:13.946Z,20.12
2023-08-12T00:04:46.928Z,20.23
2023-08-12T00:07:18.557Z,19.93
2023-08-12T00:09:50.713Z,20.21
2023-08-12T00:12:22.139Z,19.95
2023-08-12T00:14:53.567Z,20.13
2023-08-12T00:17:25.148Z,20.14
2023-08-12T00:19:57.466Z,20.14
2023-08-12T00:22:28.858Z,20.00
2023-08-12T00:25:00.359Z,20.05
2023-08-12T00:27:31.743Z,20.17
2023-08-12T00:30:03.512Z,20.21
2023-08-12T00:32:35.026Z,19.81
2023-08-12T00:35:07.020Z,20.16
2023-08-12T00:37:38.407Z,20.14
2023-08-12T00:40:10.533Z,19.93
2023-08-12T00:42:42.235Z,20.15
2023-08-12T00:45:14.375Z,20.16
2023-08-12T00:47:45.965Z,19.72
2023-08-12T00:50:17.476Z,20.05
2023-08-12T00:52:50.495Z,20.14
2023-08-12T00:55:22.472Z,20.23
2023-08-12T00:57:53.916Z,20.18
2023-08-12T01:00:25.796Z,19.75
2023-08-12T01:02:57.626Z,19.93
2023-08-12T01:05:31.172Z,19.88
2023-08-12T01:08:02.858Z,20.06
2023-08-12T01:10:37.865Z,20.05
2023-08-12T01:13:28.467Z,20.01
2023-08-12T01:16:05.167Z,19.95
2023-08-12T01:18:39.535Z,19.85
2023-08-12T01:21:16.282Z,19.96
2023-08-12T01:23:48.173Z,20.00
2023-08-12T01:26:19.588Z,19.57
2023-08-12T01:28:50.956Z,20.00
2023-08-12T01:31:32.234Z,19.55
2023-08-12T01:34:12.505Z,19.77
2023-08-12T01:36:50.496Z,19.84
2023-08-12T01:39:24.144Z,19.33
2023-08-12T01:41:56.625Z,19.55
2023-08-12T01:44:29.484Z,19.66
2023-08-12T01:47:01.325Z,19.58
2023-08-12T01:49:32.692Z,19.22
2023-08-12T01:52:04.228Z,19.63
2023-08-12T01:54:36.048Z,19.57
2023-08-12T01:57:09.330Z,19.38
2023-08-12T01:59:41.291Z,19.46
2023-08-12T02:02:13.470Z,19.55
2023-08-12T02:04:45.749Z,19.43
2023-08-12T02:07:17.233Z,19.51
2023-08-12T02:09:48.686Z,19.41
2023-08-12T02:12:20.175Z,19.13
2023-08-12T02:14:51.683Z,19.36
2023-08-12T02:17:23.048Z,19.01
2023-08-12T02:19:54.484Z,19.06
2023-08-12T02:22:25.936Z,19.04
2023-08-12T02:24:57.640Z,19.51
2023-08-12T02:27:29.077Z,19.44
2023-08-12T02:30:00.474Z,19.37
2023-08-12T02:32:32.040Z,19.36
2023-08-12T02:35:03.602Z,19.22
2023-08-12T02:37:35.085Z,19.22
2023-08-12T02:40:07.135Z,19.22
2023-08-12T02:42:38.544Z,19.36
2023-08-12T02:45:10.324Z,19.50
2023-08-12T02:47:41.991Z,19.27
2023-08-12T02:50:13.395Z,19.49
2023-08-12T02:52:44.823Z,19.45
2023-08-12T02:55:16.207Z,19.06
2023-08-12T02:57:47.658Z,19.52
2023-08-12T03:00:19.468Z,19.16
2023-08-12T03:02:51.178Z,19.39
2023-08-12T03:05:24.141Z,19.40
2023-08-12T03:07:55.561Z,19.34
2023-08-12T03:10:26.984Z,19.40
2023-08-12T03:12:58.325Z,19.24
2023-08-12T03:15:29.725Z,19.00
2023-08-12T03:18:01.263Z,19.41
2023-08-12T03:20:32.691Z,19.19
2023-08-12T03:23:04.273Z,19.46
2023-08-12T03:25:35.681Z,19.45
2023-08-12T03:28:07.090Z,19.30
2023-08-12T03:30:38.470Z,19.37
2023-08-12T03:33:09.927Z,19.01
2023-08-12T03:35:46.179Z,18.96
2023-08-12T03:38:17.880Z,19.34
2023-08-12T03:40:50.675Z,19.11
2023-08-12T03:43:22.067Z,19.16
2023-08-12T03:45:53.496Z,19.37
2023-08-12T03:48:24.903Z,19.46
2023-08-12T03:50:56.257Z,19.06
2023-08-12T03:53:27.659Z,19.49
2023-08-12T03:55:59.179Z,19.47
2023-08-12T03:58:30.847Z,19.28
2023-08-12T04:01:02.271Z,19.45
2023-08-12T04:03:33.741Z,19.52
2023-08-12T04:06:05.219Z,19.52
2023-08-12T04:08:36.608Z,19.10
2023-08-12T04:11:08.140Z,19.11
2023-08-12T04:13:39.604Z,19.52
2023-08-12T04:16:13.081Z,19.27
2023-08-12T04:18:44.460Z,19.32
2023-08-12T04:21:15.887Z,19.11
2023-08-12T04:23:47.212Z,19.51
2023-08-12T04:26:18.622Z,19.53
2023-08-12T04:28:49.971Z,19.47
2023-08-12T04:31:21.333Z,19.49
2023-08-12T04:33:53.922Z,19.45
2023-08-12T04:36:25.348Z,19.36
2023-08-12T04:38:56.667Z,19.63
2023-08-12T04:41:28.021Z,19.68
2023-08-12T04:43:59.387Z,19.47
2023-08-12T04:46:30.783Z,19.86
2023-08-12T04:49:02.353Z,19.93
2023-08-12T04:51:34.682Z,19.97
2023-08-12T04:54:06.027Z,19.82
2023-08-12T04:56:37.476Z,19.86
2023-08-12T04:59:09.669Z,20.05
2023-08-12T05:01:50.940Z,20.00
2023-08-12T05:04:30.300Z,19.65
2023-08-12T05:07:01.983Z,20.08
2023-08-12T05:09:33.645Z,20.07
2023-08-12T05:12:05.334Z,19.64
2023-08-12T05:14:36.669Z,19.89
2023-08-12T05:17:08.567Z,20.04
2023-08-12T05:19:39.987Z,19.99
2023-08-12T05:22:12.357Z,19.85
2023-08-12T05:24:43.895Z,19.83
2023-08-12T05:27:15.522Z,19.81
2023-08-12T05:29:46.930Z,19.59
2023-08-12T05:32:18.330Z,19.82
2023-08-12T05:34:56.459Z,19.40
2023-08-12T05:37:27.873Z,19.67
2023-08-12T05:39:59.412Z,19.54
2023-08-12T05:42:30.810Z,19.46
2023-08-12T05:45:02.535Z,19.65
2023-08-12T05:47:34.037Z,19.60
2023-08-12T05:50:07.364Z,19.65
2023-08-12T05:52:38.872Z,19.68
2023-08-12T05:55:10.302Z,19.50
2023-08-12T05:57:41.621Z,19.52
2023-08-12T06:00:13.421Z,19.75
2023-08-12T06:02:44.836Z,19.60
2023-08-12T06:05:16.340Z,19.76
2023-08-12T06:07:47.770Z,19.33
2023-08-12T06:10:19.142Z,19.46
2023-08-12T06:12:50.550Z,19.53
2023-08-12T06:15:21.959Z,19.59
2023-08-12T06:17:53.349Z,19.52
2023-08-12T06:20:25.982Z,19.68
2023-08-12T06:22:57.628Z,19.58
2023-08-12T06:25:29.001Z,19.80
2023-08-12T06:28:00.568Z,19.81
2023-08-12T06:30:32.389Z,19.88
2023-08-12T06:33:04.082Z,20.04
2023-08-12T06:35:35.583Z,20.08
2023-08-12T06:38:07.019Z,20.15
2023-08-12T06:40:41.421Z,20.08
2023-08-12T06:43:12.949Z,20.19
2023-08-12T06:45:44.293Z,20.15
2023-08-12T06:48:15.707Z,20.20
2023-08-12T06:50:47.152Z,20.24
2023-08-12T06:53:18.549Z,20.30
2023-08-12T06:55:50.000Z,20.29
2023-08-12T06:58:22.197Z,20.23
2023-08-12T07:00:55.005Z,20.31
2023-08-12T07:03:26.742Z,20.43
2023-08-12T07:05:58.267Z,20.50
2023-08-12T07:08:29.681Z,20.71
2023-08-12T07:11:01.068Z,20.89
2023-08-12T07:13:32.737Z,20.89
2023-08-12T07:16:04.361Z,21.14
2023-08-12T07:18:35.973Z,20.93
2023-08-12T07:21:07.455Z,21.40
2023-08-12T07:23:41.989Z,21.50
2023-08-12T07:26:13.596Z,21.50
2023-08-12T07:28:44.978Z,21.55
2023-08-12T07:31:16.443Z,21.67
2023-08-12T07:33:47.998Z,21.76
2023-08-12T07:36:19.428Z,21.50
2023-08-12T07:38:50.945Z,21.95
2023-08-12T07:41:22.413Z,22.04
2023-08-12T07:43:54.061Z,22.05
2023-08-12T07:46:25.587Z,22.15
2023-08-12T07:48:57.832Z,22.19
2023-08-12T07:51:29.169Z,22.18
2023-08-12T07:54:00.679Z,22.32
2023-08-12T07:56:32.065Z,22.30
2023-08-12T07:59:04.154Z,22.29
2023-08-12T08:01:37.965Z,22.44
2023-08-12T08:04:10.574Z,22.46
2023-08-12T08:06:42.084Z,22.60
2023-08-12T08:09:13.789Z,22.68
2023-08-12T08:11:45.200Z,22.81
2023-08-12T08:14:17.837Z,22.86
2023-08-12T08:16:49.344Z,22.92
2023-08-12T08:19:20.848Z,23.02
2023-08-12T08:21:52.204Z,22.85
2023-08-12T08:24:23.575Z,23.21
2023-08-12T08:26:54.983Z,23.21
2023-08-12T08:29:26.376Z,23.18
2023-08-12T08:31:57.723Z,23.29
2023-08-12T08:34:29.268Z,23.20
2023-08-12T08:37:00.637Z,22.98
2023-08-12T08:39:32.223Z,23.22
2023-08-12T08:42:06.289Z,23.37
2023-08-12T08:44:43.002Z,23.12
2023-08-12T08:47:17.639Z,23.53
2023-08-12T08:49:49.107Z,23.40
2023-08-12T08:52:21.223Z,23.50
2023-08-12T08:54:53.418Z,23.57
2023-08-12T08:57:38.859Z,23.52
2023-08-12T09:00:18.842Z,23.39
2023-08-12T09:02:52.426Z,23.30
2023-08-12T09:05:24.708Z,23.63
2023-08-12T09:07:57.662Z,23.25
2023-08-12T09:10:30.837Z,23.60
2023-08-12T09:13:03.220Z,23.82
2023-08-12T09:15:35.067Z,23.94
2023-08-12T09:18:07.383Z,23.97
2023-08-12T09:20:39.242Z,24.34
2023-08-12T09:23:12.035Z,24.36
2023-08-12T09:25:46.578Z,24.66
2023-08-12T09:28:17.958Z,24.82
2023-08-12T09:30:53.712Z,24.57
2023-08-12T09:33:28.014Z,25.05
2023-08-12T09:35:59.448Z,25.09
2023-08-12T09:38:31.422Z,25.21
2023-08-12T09:41:03.165Z,24.95
2023-08-12T09:43:34.626Z,25.24
2023-08-12T09:46:06.524Z,25.36
2023-08-12T09:48:38.110Z,25.43
2023-08-12T09:51:10.131Z,25.29
2023-08-12T09:53:43.225Z,25.10
2023-08-12T09:56:18.282Z,24.85
2023-08-12T09:58:50.679Z,25.07
2023-08-12T10:01:22.833Z,25.26
2023-08-12T10:03:55.649Z,25.29
2023-08-12T10:06:27.988Z,25.30
2023-08-12T10:08:59.446Z,25.31
2023-08-12T10:11:31.597Z,25.58
2023-08-12T10:14:05.016Z,25.67
2023-08-12T10:16:37.458Z,25.31
2023-08-12T10:19:15.192Z,25.47
2023-08-12T10:21:50.789Z,25.25
2023-08-12T10:24:22.465Z,25.18
2023-08-12T10:26:54.568Z,25.30
2023-08-12T10:29:26.188Z,25.49
2023-08-12T10:31:58.532Z,25.59
2023-08-12T10:34:30.550Z,25.68
2023-08-12T10:37:04.206Z,25.62
2023-08-12T10:39:36.549Z,26.01
2023-08-12T10:42:07.916Z,25.96
2023-08-12T10:44:41.857Z,25.92
2023-08-12T10:47:13.361Z,25.63
2023-08-12T10:49:49.938Z,25.95
2023-08-12T10:52:31.940Z,25.91
2023-08-12T10:55:23.044Z,25.84
2023-08-12T10:57:57.204Z,25.45
2023-08-12T11:00:30.395Z,25.82
2023-08-12T11:03:06.789Z,25.45
2023-08-12T11:05:38.849Z,25.41
2023-08-12T11:08:13.799Z,25.09
2023-08-12T11:10:45.418Z,25.37
2023-08-12T11:13:16.852Z,25.29
2023-08-12T11:15:49.099Z,24.94
2023-08-12T11:18:21.605Z,24.76
2023-08-12T11:20:54.408Z,24.97
2023-08-12T11:23:25.798Z,24.85
2023-08-12T11:25:59.088Z,24.72
2023-08-12T11:28:30.523Z,24.49
2023-08-12T11:31:02.264Z,24.17
2023-08-12T11:33:33.817Z,23.91
2023-08-12T11:36:05.651Z,23.43
2023-08-12T11:38:38.470Z,23.69
2023-08-12T11:41:09.829Z,23.48
2023-08-12T11:43:41.168Z,23.21
2023-08-12T11:46:12.561Z,23.09
2023-08-12T11:48:44.724Z,22.59
2023-08-12T11:51:16.279Z,22.93
2023-08-12T11:53:47.685Z,22.76
2023-08-12T11:56:21.423Z,22.54
2023-08-12T11:58:56.911Z,22.39
2023-08-12T12:01:29.538Z,22.79
2023-08-12T12:04:04.990Z,22.69
2023-08-12T12:06:39.743Z,22.95
2023-08-12T12:09:11.395Z,22.80
2023-08-12T12:11:43.308Z,23.30
2023-08-12T12:14:14.748Z,23.47
2023-08-12T12:16:48.176Z,23.57
2023-08-12T12:19:21.693Z,23.67
2023-08-12T12:21:54.272Z,23.80
2023-08-12T12:24:30.708Z,23.87
2023-08-12T12:27:02.223Z,23.97
2023-08-12T12:29:35.776Z,23.96
2023-08-12T12:32:07.170Z,23.74
2023-08-12T12:34:39.824Z,23.79
2023-08-12T12:37:11.265Z,23.72
2023-08-12T12:39:42.780Z,23.77
2023-08-12T12:42:15.055Z,23.78
2023-08-12T12:44:46.699Z,23.80
2023-08-12T12:47:19.168Z,23.46
2023-08-12T12:49:50.642Z,23.90
2023-08-12T12:52:22.140Z,23.92
2023-08-12T12:54:53.603Z,23.63
2023-08-12T12:57:25.063Z,23.59
2023-08-12T12:59:56.410Z,23.07
2023-08-12T13:02:28.025Z,23.41
2023-08-12T13:04:59.408Z,23.23
2023-08-12T13:07:30.768Z,23.22
2023-08-12T13:10:02.230Z,23.01
2023-08-12T13:12:33.770Z,23.04
2023-08-12T13:15:05.692Z,23.08
2023-08-12T13:17:37.139Z,23.17
2023-08-12T13:20:10.705Z,23.23
2023-08-12T13:22:42.080Z,23.38
2023-08-12T13:25:13.610Z,23.97
2023-08-12T13:27:45.143Z,24.09
2023-08-12T13:30:16.675Z,24.21
2023-08-12T13:32:48.216Z,24.19
2023-08-12T13:35:20.196Z,24.01
2023-08-12T13:37:55.271Z,24.12
2023-08-12T13:40:26.770Z,24.33
2023-08-12T13:42:58.208Z,24.24
2023-08-12T13:45:30.077Z,23.93
2023-08-12T13:48:01.519Z,24.04
2023-08-12T13:50:33.836Z,24.07
2023-08-12T13:53:05.370Z,23.82
2023-08-12T13:55:36.696Z,23.98
2023-08-12T13:58:08.106Z,23.99
2023-08-12T14:00:39.478Z,24.06
2023-08-12T14:03:10.823Z,23.94
2023-08-12T14:05:43.241Z,24.07
2023-08-12T14:08:14.697Z,24.13
2023-08-12T14:10:49.448Z,24.18
2023-08-12T14:13:20.896Z,24.14
2023-08-12T14:15:54.442Z,23.53
2023-08-12T14:18:26.943Z,23.46
2023-08-12T14:20:58.507Z,23.86
2023-08-12T14:23:29.979Z,23.59
2023-08-12T14:26:02.169Z,23.61
2023-08-12T14:28:33.655Z,23.75
2023-08-12T14:31:05.389Z,23.31
2023-08-12T14:33:38.432Z,23.62
2023-08-12T14:36:09.882Z,23.54
2023-08-12T14:38:41.321Z,23.43
2023-08-12T14:41:12.844Z,23.31
2023-08-12T14:43:44.285Z,23.12
2023-08-12T14:46:16.041Z,23.23
2023-08-12T14:48:47.599Z,23.09
2023-08-12T14:51:19.047Z,23.65
2023-08-12T14:53:50.625Z,23.61
2023-08-12T14:56:22.072Z,23.75
2023-08-12T14:58:53.420Z,24.43
2023-08-12T15:01:28.853Z,24.72
2023-08-12T15:04:00.296Z,24.96
2023-08-12T15:06:31.709Z,25.24
2023-08-12T15:09:03.561Z,25.35
2023-08-12T15:11:35.761Z,25.37
2023-08-12T15:14:07.283Z,25.60
2023-08-12T15:16:38.827Z,25.74
2023-08-12T15:19:10.228Z,25.77
2023-08-12T15:21:41.602Z,25.65
2023-08-12T15:24:13.564Z,25.72
2023-08-12T15:26:45.326Z,25.34
2023-08-12T15:29:16.677Z,25.33
2023-08-12T15:31:48.032Z,24.97
2023-08-12T15:34:19.430Z,24.99
2023-08-12T15:36:53.908Z,24.74
2023-08-12T15:39:25.259Z,24.25
2023-08-12T15:41:56.723Z,24.63
2023-08-12T15:44:28.065Z,24.59
2023-08-12T15:46:59.536Z,24.37
2023-08-12T15:49:33.527Z,24.33
2023-08-12T15:52:05.125Z,24.28
2023-08-12T15:54:36.474Z,24.12
2023-08-12T15:57:07.879Z,24.04
2023-08-12T15:59:39.278Z,23.63
2023-08-12T16:02:10.883Z,23.36
2023-08-12T16:04:43.123Z,23.47
2023-08-12T16:07:15.887Z,23.40
2023-08-12T16:09:49.276Z,23.06
2023-08-12T16:12:20.944Z,23.24
2023-08-12T16:14:52.378Z,23.45
2023-08-12T16:17:23.862Z,23.95
2023-08-12T16:19:55.255Z,23.98
2023-08-12T16:22:26.630Z,23.97
2023-08-12T16:24:57.991Z,23.96
2023-08-12T16:27:29.340Z,23.80
2023-08-12T16:30:00.703Z,23.93
2023-08-12T16:32:32.134Z,23.96
2023-08-12T16:35:03.848Z,23.74
2023-08-12T16:37:35.917Z,23.92
2023-08-12T16:40:07.985Z,23.76
2023-08-12T16:42:39.452Z,23.60
2023-08-12T16:45:13.888Z,23.25
2023-08-12T16:47:45.488Z,23.32
2023-08-12T16:50:16.925Z,23.33
2023-08-12T16:52:48.542Z,23.22
2023-08-12T16:55:19.905Z,22.76
2023-08-12T16:57:51.324Z,23.04
2023-08-12T17:00:22.705Z,23.04
2023-08-12T17:02:54.106Z,23.08
2023-08-12T17:05:25.591Z,23.07
2023-08-12T17:07:57.029Z,23.19
2023-08-12T17:10:30.078Z,23.31
2023-08-12T17:13:01.704Z,23.22
2023-08-12T17:15:33.223Z,23.27
2023-08-12T17:18:05.075Z,23.40
2023-08-12T17:20:36.561Z,23.43
2023-08-12T17:23:08.205Z,23.37
2023-08-12T17:25:39.688Z,23.28
2023-08-12T17:28:11.211Z,22.99
2023-08-12T17:30:42.602Z,22.51
2023-08-12T17:33:13.980Z,22.35
2023-08-12T17:35:45.500Z,22.38
2023-08-12T17:38:16.863Z,22.33
2023-08-12T17:40:51.080Z,22.27
2023-08-12T17:43:22.416Z,22.29
2023-08-12T17:45:53.898Z,22.15
2023-08-12T17:48:25.249Z,22.13
2023-08-12T17:50:56.708Z,22.11
2023-08-12T17:53:28.149Z,21.78
2023-08-12T17:55:59.624Z,22.12
2023-08-12T17:58:31.269Z,22.10
2023-08-12T18:01:02.680Z,22.05
2023-08-12T18:03:34.168Z,22.03
2023-08-12T18:06:06.325Z,22.04
2023-08-12T18:08:38.050Z,21.66
2023-08-12T18:11:09.464Z,21.98
2023-08-12T18:13:40.868Z,21.57
2023-08-12T18:16:12.520Z,21.60
2023-08-12T18:18:44.046Z,21.85
2023-08-12T18:21:15.538Z,21.87
2023-08-12T18:23:49.315Z,21.36
2023-08-12T18:26:21.814Z,21.47
2023-08-12T18:28:53.223Z,21.35
2023-08-12T18:31:24.858Z,21.19
2023-08-12T18:33:56.318Z,20.75
2023-08-12T18:36:27.787Z,20.70
2023-08-12T18:38:59.494Z,20.97
2023-08-12T18:41:31.194Z,20.94
2023-08-12T18:44:02.647Z,20.87
2023-08-12T18:46:34.073Z,20.81
2023-08-12T18:49:05.470Z,20.81
2023-08-12T18:51:37.217Z,20.46
2023-08-12T18:54:08.592Z,20.66
2023-08-12T18:56:40.513Z,20.35
2023-08-12T18:59:12.085Z,20.38
2023-08-12T19:01:43.504Z,20.35
2023-08-12T19:04:15.065Z,20.23
2023-08-12T19:06:46.487Z,19.81
2023-08-12T19:09:18.432Z,20.10
2023-08-12T19:11:49.864Z,20.00
2023-08-12T19:14:21.459Z,19.77
2023-08-12T19:16:52.929Z,19.99
2023-08-12T19:19:24.480Z,19.86
2023-08-12T19:21:56.077Z,19.54
2023-08-12T19:24:28.039Z,19.61
2023-08-12T19:26:59.391Z,19.44
2023-08-12T19:29:30.822Z,19.36
2023-08-12T19:32:02.222Z,19.35
2023-08-12T19:34:34.536Z,19.00
2023-08-12T19:37:06.228Z,19.03
2023-08-12T19:39:37.610Z,19.53
2023-08-12T19:42:09.125Z,19.59
2023-08-12T19:44:40.496Z,19.17
2023-08-12T19:47:12.277Z,19.55
2023-08-12T19:49:43.647Z,19.55
2023-08-12T19:52:15.515Z,19.30
2023-08-12T19:54:47.074Z,19.21
2023-08-12T19:57:18.447Z,19.54
2023-08-12T19:59:49.841Z,19.54
2023-08-12T20:02:36.687Z,19.07
2023-08-12T20:05:18.794Z,19.25
2023-08-12T20:07:50.398Z,19.19
2023-08-12T20:10:21.993Z,19.13
2023-08-12T20:12:54.522Z,19.20
2023-08-12T20:15:27.275Z,19.18
2023-08-12T20:17:59.597Z,18.94
2023-08-12T20:20:31.214Z,18.97
2023-08-12T20:23:06.615Z,18.53
2023-08-12T20:25:38.149Z,18.30
2023-08-12T20:28:09.534Z,18.52
2023-08-12T20:30:40.892Z,18.56
2023-08-12T20:33:12.415Z,18.32
2023-08-12T20:35:44.220Z,18.29
2023-08-12T20:38:19.121Z,18.22
2023-08-12T20:40:51.045Z,18.07
2023-08-12T20:43:22.672Z,18.07
2023-08-12T20:45:54.064Z,17.96
2023-08-12T20:48:25.596Z,17.93
2023-08-12T20:50:57.183Z,17.84
2023-08-12T20:53:29.916Z,17.78
2023-08-12T20:56:01.436Z,17.64
2023-08-12T20:58:32.955Z,17.61
2023-08-12T21:01:05.379Z,17.60
2023-08-12T21:03:37.270Z,17.47
2023-08-12T21:06:10.119Z,17.38
2023-08-12T21:08:41.828Z,17.39
2023-08-12T21:11:13.687Z,17.30
2023-08-12T21:13:45.127Z,16.85
2023-08-12T21:16:17.754Z,16.78
2023-08-12T21:18:49.277Z,17.09
2023-08-12T21:21:20.669Z,17.13
2023-08-12T21:23:52.469Z,17.03
2023-08-12T21:26:23.935Z,16.95
2023-08-12T21:28:55.297Z,16.92
2023-08-12T21:31:26.766Z,16.90
2023-08-12T21:33:58.424Z,16.43
2023-08-12T21:36:32.888Z,16.85
2023-08-12T21:39:06.264Z,16.70
2023-08-12T21:41:37.681Z,16.75
2023-08-12T21:44:09.189Z,16.77
2023-08-12T21:46:40.960Z,16.31
2023-08-12T21:49:12.523Z,16.66
2023-08-12T21:51:44.125Z,16.21
2023-08-12T21:54:15.508Z,16.60
2023-08-12T21:56:47.198Z,16.29
2023-08-12T21:59:20.233Z,16.57
2023-08-12T22:01:51.633Z,16.45
2023-08-12T22:04:23.835Z,16.04
2023-08-12T22:06:55.331Z,16.36
2023-08-12T22:09:29.645Z,16.34
2023-08-12T22:12:01.158Z,16.33
2023-08-12T22:14:33.266Z,16.26
2023-08-12T22:17:05.229Z,16.06
2023-08-12T22:19:36.944Z,16.17
2023-08-12T22:22:19.018Z,15.93
2023-08-12T22:24:51.134Z,16.17
2023-08-12T22:27:22.583Z,16.13
2023-08-12T22:29:53.962Z,16.08
2023-08-12T22:32:25.348Z,16.07
2023-08-12T22:34:56.782Z,16.06
2023-08-12T22:37:28.284Z,15.78
2023-08-12T22:39:59.723Z,15.92
2023-08-12T22:42:31.073Z,15.74
2023-08-12T22:45:02.478Z,15.92
2023-08-12T22:47:34.438Z,15.90
2023-08-12T22:50:07.321Z,15.80
2023-08-12T22:52:39.444Z,15.73
2023-08-12T22:55:12.059Z,15.74
2023-08-12T22:57:43.455Z,15.64
2023-08-12T23:00:15.133Z,15.67
2023-08-12T23:02:47.353Z,15.41
2023-08-12T23:05:19.077Z,15.66
2023-08-12T23:07:50.598Z,15.54
2023-08-12T23:10:22.213Z,15.48
2023-08-12T23:12:53.538Z,15.56
2023-08-12T23:15:24.970Z,15.11
2023-08-12T23:17:56.693Z,15.46
2023-08-12T23:20:28.092Z,15.54
2023-08-12T23:22:59.489Z,15.45
2023-08-12T23:25:31.135Z,15.14
2023-08-12T23:28:03.915Z,15.04
2023-08-12T23:30:35.298Z,14.98
2023-08-12T23:33:06.661Z,15.41
2023-08-12T23:35:38.091Z,15.36
2023-08-12T23:38:09.518Z,15.41
2023-08-12T23:40:40.924Z,15.26
2023-08-12T23:43:12.275Z,15.37
2023-08-12T23:45:43.696Z,15.40
2023-08-12T23:48:15.279Z,15.34
2023-08-12T23:50:46.738Z,15.34
2023-08-12T23:53:18.158Z,15.31
2023-08-12T23:55:49.533Z,15.32
2023-08-12T23:58:20.942Z,15.28
